createdAt,value
2023-02-15T00:01:08.336Z,102229.59
2023-02-15T00:03:53.278Z,102228.38
2023-02-15T00:06:38.687Z,102228.47
2023-02-15T00:09:23.958Z,102209.47
2023-02-15T00:12:10.244Z,102211.56
2023-02-15T00:14:55.428Z,102208.28
2023-02-15T00:17:40.762Z,102206.38
2023-02-15T00:20:25.809Z,102202.25
2023-02-15T00:23:11.179Z,102196.38
2023-02-15T00:26:08.048Z,102201.81
2023-02-15T00:28:53.711Z,102205.69
2023-02-15T00:31:39.321Z,102200.59
2023-02-15T00:34:26.474Z,102204.16
2023-02-15T00:37:11.512Z,102197.94
2023-02-15T00:39:56.869Z,102190.38
2023-02-15T00:42:42.214Z,102190.25
2023-02-15T00:45:27.053Z,102182.38
2023-02-15T00:48:12.698Z,102188.59
2023-02-15T00:51:00.531Z,102192.81
2023-02-15T00:53:45.865Z,102189.34
2023-02-15T00:56:31.272Z,102196.72
2023-02-15T00:59:16.478Z,102192.38
2023-02-15T01:02:01.922Z,102184.72
2023-02-15T01:04:46.953Z,102186.13
2023-02-15T01:07:32.244Z,102178.25
2023-02-15T01:10:17.606Z,102187.25
2023-02-15T01:13:03.560Z,102182.34
2023-02-15T01:15:56.068Z,102177.44
2023-02-15T01:18:41.468Z,102177.44
2023-02-15T01:21:27.233Z,102168.94
2023-02-15T01:24:14.300Z,102163.69
2023-02-15T01:26:59.513Z,102174.38
2023-02-15T01:29:44.908Z,102176.56
2023-02-15T01:32:29.782Z,102169.00
2023-02-15T01:35:15.031Z,102173.47
2023-02-15T01:38:00.541Z,102171.19
2023-02-15T01:40:45.863Z,102173.00
2023-02-15T01:43:42.360Z,102158.25
2023-02-15T01:46:36.095Z,102152.78
2023-02-15T01:49:27.741Z,102149.84
2023-02-15T01:52:16.890Z,102158.69
2023-02-15T01:55:02.469Z,102159.34
2023-02-15T01:57:47.948Z,102157.88
2023-02-15T02:00:34.964Z,102150.81
2023-02-15T02:03:36.768Z,102148.78
2023-02-15T02:06:22.729Z,102144.09
2023-02-15T02:09:09.207Z,102137.16
2023-02-15T02:11:54.827Z,102138.75
2023-02-15T02:14:41.701Z,102135.66
2023-02-15T02:17:54.809Z,102141.97
2023-02-15T02:21:18.965Z,102127.84
2023-02-15T02:24:34.001Z,102123.94
2023-02-15T02:27:29.864Z,102124.06
2023-02-15T02:30:23.675Z,102121.69
2023-02-15T02:33:26.287Z,102117.19
2023-02-15T02:36:39.308Z,102109.31
2023-02-15T02:39:38.620Z,102108.97
2023-02-15T02:42:44.336Z,102111.84
2023-02-15T02:45:31.990Z,102108.81
2023-02-15T02:48:23.067Z,102110.84
2023-02-15T02:51:08.533Z,102106.44
2023-02-15T02:53:57.417Z,102115.25
2023-02-15T02:56:49.339Z,102112.09
2023-02-15T02:59:42.333Z,102110.56
2023-02-15T03:02:35.498Z,102119.03
2023-02-15T03:05:25.794Z,102121.03
2023-02-15T03:08:15.116Z,102123.81
2023-02-15T03:11:02.579Z,102121.69
2023-02-15T03:13:49.778Z,102118.72
2023-02-15T03:16:35.643Z,102117.38
2023-02-15T03:19:28.920Z,102111.97
2023-02-15T03:22:25.819Z,102109.72
2023-02-15T03:25:26.066Z,102097.72
2023-02-15T03:28:16.351Z,102100.22
2023-02-15T03:31:05.987Z,102107.00
2023-02-15T03:33:58.891Z,102111.13
2023-02-15T03:37:10.958Z,102111.84
2023-02-15T03:40:13.210Z,102108.56
2023-02-15T03:43:22.790Z,102102.41
2023-02-15T03:46:34.497Z,102098.09
2023-02-15T03:49:35.742Z,102096.56
2023-02-15T03:52:24.265Z,102083.06
2023-02-15T03:55:09.757Z,102077.47
2023-02-15T03:57:55.036Z,102080.91
2023-02-15T04:00:48.650Z,102076.84
2023-02-15T04:04:17.293Z,102077.41
2023-02-15T04:07:04.519Z,102077.50
2023-02-15T04:09:50.115Z,102076.69
2023-02-15T04:12:35.587Z,102081.44
2023-02-15T04:15:20.912Z,102079.13
2023-02-15T04:18:06.480Z,102078.75
2023-02-15T04:20:51.569Z,102071.16
2023-02-15T04:23:37.101Z,102068.94
2023-02-15T04:26:22.387Z,102068.03
2023-02-15T04:29:07.884Z,102062.63
2023-02-15T04:31:54.878Z,102062.28
2023-02-15T04:34:39.954Z,102067.47
2023-02-15T04:37:25.320Z,102073.75
2023-02-15T04:40:13.095Z,102067.78
2023-02-15T04:42:58.393Z,102068.25
2023-02-15T04:45:49.094Z,102063.84
2023-02-15T04:48:34.331Z,102060.16
2023-02-15T04:51:20.181Z,102058.56
2023-02-15T04:54:05.679Z,102061.22
2023-02-15T04:56:50.783Z,102059.94
2023-02-15T04:59:36.299Z,102064.53
2023-02-15T05:02:21.547Z,102066.38
2023-02-15T05:05:07.080Z,102066.53
2023-02-15T05:07:52.397Z,102071.63
2023-02-15T05:10:37.678Z,102065.00
2023-02-15T05:13:23.009Z,102053.31
2023-02-15T05:16:08.005Z,102052.31
2023-02-15T05:18:52.833Z,102059.69
2023-02-15T05:21:38.546Z,102061.34
2023-02-15T05:24:24.010Z,102065.56
2023-02-15T05:27:12.137Z,102054.59
2023-02-15T05:29:59.102Z,102051.09
2023-02-15T05:32:44.460Z,102035.44
2023-02-15T05:35:29.713Z,102045.53
2023-02-15T05:38:15.230Z,102050.25
2023-02-15T05:41:00.869Z,102053.66
2023-02-15T05:43:46.266Z,102042.84
2023-02-15T05:46:32.745Z,102041.97
2023-02-15T05:49:18.004Z,102043.28
2023-02-15T05:52:04.912Z,102048.00
2023-02-15T05:54:49.806Z,102053.31
2023-02-15T05:57:34.746Z,102040.75
2023-02-15T06:00:19.800Z,102037.56
2023-02-15T06:03:05.123Z,102041.72
2023-02-15T06:05:50.530Z,102044.66
2023-02-15T06:08:37.127Z,102057.53
2023-02-15T06:11:22.534Z,102051.66
2023-02-15T06:14:07.500Z,102053.19
2023-02-15T06:16:53.023Z,102044.91
2023-02-15T06:19:38.337Z,102054.44
2023-02-15T06:22:23.386Z,102054.59
2023-02-15T06:25:08.216Z,102042.25
2023-02-15T06:27:53.131Z,102041.97
2023-02-15T06:30:38.539Z,102039.19
2023-02-15T06:33:24.208Z,102049.75
2023-02-15T06:36:09.683Z,102049.59
2023-02-15T06:38:55.720Z,102041.09
2023-02-15T06:41:41.046Z,102050.63
2023-02-15T06:44:26.607Z,102048.06
2023-02-15T06:47:12.589Z,102038.63
2023-02-15T06:49:58.007Z,102046.53
2023-02-15T06:52:43.274Z,102045.44
2023-02-15T06:55:28.814Z,102041.88
2023-02-15T06:58:14.134Z,102042.13
2023-02-15T07:01:00.158Z,102036.00
2023-02-15T07:03:45.280Z,102034.84
2023-02-15T07:06:34.087Z,102038.94
2023-02-15T07:09:19.357Z,102035.22
2023-02-15T07:12:05.234Z,102030.91
2023-02-15T07:14:50.635Z,102042.19
2023-02-15T07:17:37.512Z,102050.06
2023-02-15T07:20:24.224Z,102046.91
2023-02-15T07:23:09.480Z,102046.66
2023-02-15T07:26:01.693Z,102045.84
2023-02-15T07:28:46.809Z,102040.13
2023-02-15T07:31:32.405Z,102038.28
2023-02-15T07:34:18.010Z,102029.59
2023-02-15T07:37:03.241Z,102033.56
2023-02-15T07:39:48.084Z,102034.47
2023-02-15T07:42:33.462Z,102026.47
2023-02-15T07:45:18.764Z,102022.28
2023-02-15T07:48:04.804Z,102017.28
2023-02-15T07:50:50.149Z,102011.66
2023-02-15T07:53:36.714Z,102019.44
2023-02-15T07:56:21.927Z,102008.19
2023-02-15T07:59:07.214Z,102001.06
2023-02-15T08:01:52.702Z,102003.78
2023-02-15T08:04:38.103Z,101996.34
2023-02-15T08:07:22.943Z,101999.13
2023-02-15T08:10:08.395Z,101986.31
2023-02-15T08:12:53.449Z,101984.91
2023-02-15T08:15:38.791Z,101973.06
2023-02-15T08:18:23.707Z,101969.53
2023-02-15T08:21:09.140Z,101960.41
2023-02-15T08:23:55.913Z,101945.00
2023-02-15T08:26:42.497Z,101941.22
2023-02-15T08:29:29.377Z,101937.13
2023-02-15T08:32:15.088Z,101947.44
2023-02-15T08:35:00.456Z,101937.47
2023-02-15T08:38:07.231Z,101927.91
2023-02-15T08:40:52.618Z,101921.00
2023-02-15T08:43:38.332Z,101909.47
2023-02-15T08:46:25.748Z,101908.44
2023-02-15T08:49:14.501Z,101905.66
2023-02-15T08:51:59.983Z,101906.03
2023-02-15T08:54:45.314Z,101907.78
2023-02-15T08:57:30.821Z,101899.72
2023-02-15T09:00:16.150Z,101895.34
2023-02-15T09:03:01.638Z,101892.66
2023-02-15T09:05:47.083Z,101891.59
2023-02-15T09:08:32.043Z,101883.06
2023-02-15T09:11:21.291Z,101874.13
2023-02-15T09:14:15.452Z,101867.47
2023-02-15T09:17:00.628Z,101854.84
2023-02-15T09:19:45.848Z,101855.84
2023-02-15T09:22:31.317Z,101835.31
2023-02-15T09:25:16.571Z,101825.88
2023-02-15T09:28:02.073Z,101807.84
2023-02-15T09:30:47.600Z,101795.97
2023-02-15T09:33:34.556Z,101788.03
2023-02-15T09:36:21.416Z,101770.59
2023-02-15T09:39:14.706Z,101758.28
2023-02-15T09:42:18.846Z,101745.44
2023-02-15T09:45:19.493Z,101737.13
2023-02-15T09:48:17.300Z,101729.97
2023-02-15T09:51:45.048Z,101720.84
2023-02-15T09:55:09.844Z,101717.75
2023-02-15T09:58:23.229Z,101717.78
2023-02-15T10:01:14.574Z,101736.28
2023-02-15T10:04:12.183Z,101718.38
2023-02-15T10:07:15.982Z,101736.84
2023-02-15T10:10:32.046Z,101712.09
2023-02-15T10:13:48.223Z,101715.16
2023-02-15T10:16:58.411Z,101703.13
2023-02-15T10:20:00.990Z,101702.00
2023-02-15T10:22:52.138Z,101714.44
2023-02-15T10:25:52.837Z,101683.09
2023-02-15T10:28:49.691Z,101681.94
2023-02-15T10:31:50.400Z,101624.75
2023-02-15T10:34:44.265Z,101631.44
2023-02-15T10:37:44.721Z,101619.97
2023-02-15T10:41:03.048Z,101601.63
2023-02-15T10:44:02.833Z,101559.19
2023-02-15T10:47:12.754Z,101530.91
2023-02-15T10:50:22.716Z,101521.25
2023-02-15T10:53:13.966Z,101512.03
2023-02-15T10:56:21.631Z,101509.28
2023-02-15T10:59:28.929Z,101482.75
2023-02-15T11:02:26.503Z,101502.59
2023-02-15T11:05:40.702Z,101439.81
2023-02-15T11:08:30.561Z,101483.84
2023-02-15T11:11:40.817Z,101532.16
2023-02-15T11:14:46.383Z,101533.28
2023-02-15T11:17:47.747Z,101519.81
2023-02-15T11:20:57.878Z,101523.44
2023-02-15T11:23:45.846Z,101546.69
2023-02-15T11:26:37.390Z,101511.66
2023-02-15T11:29:33.055Z,101538.38
2023-02-15T11:32:27.051Z,101479.53
2023-02-15T11:35:12.002Z,101428.59
2023-02-15T11:38:16.092Z,101461.88
2023-02-15T11:41:06.494Z,101451.34
2023-02-15T11:44:00.340Z,101467.59
2023-02-15T11:46:46.020Z,101439.03
2023-02-15T11:49:33.764Z,101475.28
2023-02-15T11:52:19.680Z,101496.03
2023-02-15T11:55:15.075Z,101495.25
2023-02-15T11:58:06.144Z,101469.09
2023-02-15T12:01:17.526Z,101447.59
2023-02-15T12:04:09.348Z,101419.66
2023-02-15T12:07:10.218Z,101384.53
2023-02-15T12:10:16.253Z,101409.41
2023-02-15T12:13:16.853Z,101419.34
2023-02-15T12:16:11.119Z,101419.63
2023-02-15T12:18:59.634Z,101406.47
2023-02-15T12:21:49.930Z,101415.09
2023-02-15T12:24:48.461Z,101375.09
2023-02-15T12:27:36.684Z,101394.91
2023-02-15T12:30:31.141Z,101363.44
2023-02-15T12:33:24.635Z,101417.00
2023-02-15T12:36:16.207Z,101402.88
2023-02-15T12:39:08.651Z,101466.50
2023-02-15T12:41:57.056Z,101429.72
2023-02-15T12:44:56.869Z,101408.97
2023-02-15T12:47:42.388Z,101369.84
2023-02-15T12:50:27.345Z,101371.44
2023-02-15T12:53:30.930Z,101353.53
2023-02-15T12:56:27.571Z,101337.47
2023-02-15T12:59:15.129Z,101346.50
2023-02-15T13:02:13.134Z,101314.25
2023-02-15T13:05:08.956Z,101305.91
2023-02-15T13:08:00.533Z,101298.72
2023-02-15T13:11:08.051Z,101315.97
2023-02-15T13:13:59.581Z,101309.47
2023-02-15T13:16:46.954Z,101282.66
2023-02-15T13:19:37.800Z,101273.78
2023-02-15T13:22:30.487Z,101325.72
2023-02-15T13:25:23.967Z,101347.59
2023-02-15T13:28:15.690Z,101302.69
2023-02-15T13:31:01.161Z,101283.31
2023-02-15T13:34:02.669Z,101284.66
2023-02-15T13:37:03.060Z,101291.00
2023-02-15T13:39:50.888Z,101267.97
2023-02-15T13:42:57.477Z,101299.38
2023-02-15T13:45:55.948Z,101234.31
2023-02-15T13:48:53.034Z,101251.16
2023-02-15T13:51:53.160Z,101209.38
2023-02-15T13:55:16.751Z,101219.78
2023-02-15T13:58:20.622Z,101200.25
2023-02-15T14:01:17.935Z,101242.47
2023-02-15T14:04:24.670Z,101242.66
2023-02-15T14:07:25.195Z,101270.91
2023-02-15T14:10:21.920Z,101245.47
2023-02-15T14:13:41.500Z,101247.47
2023-02-15T14:17:06.022Z,101212.75
2023-02-15T14:19:58.196Z,101201.34
2023-02-15T14:22:49.928Z,101201.75
2023-02-15T14:25:51.946Z,101261.91
2023-02-15T14:28:49.232Z,101229.38
2023-02-15T14:31:45.464Z,101262.66
2023-02-15T14:35:02.631Z,101239.63
2023-02-15T14:38:10.728Z,101216.84
2023-02-15T14:41:01.095Z,101197.03
2023-02-15T14:44:29.382Z,101192.38
2023-02-15T14:47:23.845Z,101193.38
2023-02-15T14:50:31.061Z,101233.38
2023-02-15T14:53:17.082Z,101240.06
2023-02-15T14:56:11.570Z,101197.53
2023-02-15T14:59:00.269Z,101215.19
2023-02-15T15:01:56.594Z,101192.38
2023-02-15T15:05:03.286Z,101202.63
2023-02-15T15:07:52.964Z,101223.69
2023-02-15T15:10:44.584Z,101192.25
2023-02-15T15:13:32.941Z,101204.72
2023-02-15T15:16:30.854Z,101255.00
2023-02-15T15:19:51.905Z,101257.38
2023-02-15T15:22:37.942Z,101252.22
2023-02-15T15:26:12.406Z,101245.25
2023-02-15T15:29:00.291Z,101237.41
2023-02-15T15:31:52.392Z,101242.16
2023-02-15T15:35:01.728Z,101255.72
2023-02-15T15:38:25.582Z,101250.13
2023-02-15T15:41:40.937Z,101276.28
2023-02-15T15:45:05.494Z,101261.56
2023-02-15T15:48:07.705Z,101288.31
2023-02-15T15:50:54.441Z,101318.81
2023-02-15T15:53:44.785Z,101318.00
2023-02-15T15:56:34.385Z,101305.84
2023-02-15T15:59:25.881Z,101313.06
2023-02-15T16:02:17.533Z,101335.28
2023-02-15T16:05:09.965Z,101337.53
2023-02-15T16:07:55.192Z,101341.56
2023-02-15T16:10:41.317Z,101362.19
2023-02-15T16:13:27.491Z,101361.13
2023-02-15T16:16:20.256Z,101393.00
2023-02-15T16:19:05.703Z,101411.25
2023-02-15T16:21:51.188Z,101429.97
2023-02-15T16:25:11.827Z,101453.06
2023-02-15T16:27:57.082Z,101454.13
2023-02-15T16:30:42.351Z,101444.41
2023-02-15T16:33:36.938Z,101422.97
2023-02-15T16:36:30.004Z,101418.16
2023-02-15T16:39:20.978Z,101421.75
2023-02-15T16:42:06.547Z,101443.88
2023-02-15T16:45:14.802Z,101465.66
2023-02-15T16:48:05.606Z,101461.13
2023-02-15T16:50:55.674Z,101452.50
2023-02-15T16:53:40.714Z,101477.06
2023-02-15T16:56:28.817Z,101473.34
2023-02-15T16:59:35.072Z,101496.56
2023-02-15T17:02:49.437Z,101496.06
2023-02-15T17:05:53.640Z,101504.38
2023-02-15T17:08:45.727Z,101519.81
2023-02-15T17:11:41.904Z,101520.06
2023-02-15T17:14:32.301Z,101519.41
2023-02-15T17:17:17.337Z,101517.44
2023-02-15T17:20:03.130Z,101534.72
2023-02-15T17:22:48.283Z,101543.44
2023-02-15T17:25:39.791Z,101548.44
2023-02-15T17:28:28.755Z,101554.84
2023-02-15T17:31:16.282Z,101552.31
2023-02-15T17:34:02.627Z,101565.94
2023-02-15T17:36:58.894Z,101563.22
2023-02-15T17:39:43.903Z,101564.84
2023-02-15T17:42:29.284Z,101561.41
2023-02-15T17:45:15.575Z,101568.97
2023-02-15T17:48:04.476Z,101575.66
2023-02-15T17:50:49.974Z,101590.91
2023-02-15T17:53:35.706Z,101579.94
2023-02-15T17:56:20.888Z,101587.31
2023-02-15T17:59:06.405Z,101590.69
2023-02-15T18:01:51.577Z,101605.53
2023-02-15T18:04:37.520Z,101599.84
2023-02-15T18:07:23.353Z,101605.34
2023-02-15T18:10:18.508Z,101591.69
2023-02-15T18:13:03.978Z,101593.16
2023-02-15T18:15:48.963Z,101602.63
2023-02-15T18:18:34.133Z,101596.06
2023-02-15T18:21:19.340Z,101600.34
2023-02-15T18:24:04.164Z,101600.34
2023-02-15T18:26:50.499Z,101597.34
2023-02-15T18:29:35.831Z,101592.28
2023-02-15T18:32:35.364Z,101605.75
2023-02-15T18:35:22.854Z,101609.97
2023-02-15T18:38:09.765Z,101607.94
2023-02-15T18:40:55.007Z,101609.59
2023-02-15T18:43:40.005Z,101615.69
2023-02-15T18:46:25.399Z,101618.81
2023-02-15T18:49:10.845Z,101618.00
2023-02-15T18:51:55.902Z,101626.66
2023-02-15T18:54:41.820Z,101627.97
2023-02-15T18:57:28.155Z,101622.22
2023-02-15T19:00:19.016Z,101633.16
2023-02-15T19:03:04.277Z,101629.00
2023-02-15T19:05:49.665Z,101631.59
2023-02-15T19:08:35.060Z,101643.91
2023-02-15T19:11:22.652Z,101634.22
2023-02-15T19:14:32.359Z,101643.06
2023-02-15T19:17:19.962Z,101635.72
2023-02-15T19:20:05.936Z,101645.31
2023-02-15T19:22:53.042Z,101638.56
2023-02-15T19:25:40.454Z,101643.19
2023-02-15T19:28:33.313Z,101651.94
2023-02-15T19:31:18.649Z,101655.31
2023-02-15T19:34:15.649Z,101657.84
2023-02-15T19:37:01.042Z,101666.91
2023-02-15T19:39:45.950Z,101661.38
2023-02-15T19:42:31.091Z,101668.03
2023-02-15T19:45:18.874Z,101666.47
2023-02-15T19:48:06.383Z,101671.31
2023-02-15T19:50:52.234Z,101664.94
2023-02-15T19:53:37.114Z,101668.78
2023-02-15T19:56:23.893Z,101665.84
2023-02-15T19:59:23.874Z,101666.13
2023-02-15T20:02:14.402Z,101692.38
2023-02-15T20:04:59.633Z,101690.47
2023-02-15T20:07:48.149Z,101695.56
2023-02-15T20:10:33.844Z,101701.69
2023-02-15T20:13:20.608Z,101703.13
2023-02-15T20:16:06.833Z,101709.47
2023-02-15T20:18:51.977Z,101711.53
2023-02-15T20:21:37.874Z,101694.94
2023-02-15T20:24:26.920Z,101700.22
2023-02-15T20:27:17.029Z,101692.13
2023-02-15T20:30:02.632Z,101699.19
2023-02-15T20:32:47.606Z,101701.56
2023-02-15T20:35:33.100Z,101695.31
2023-02-15T20:38:30.963Z,101693.00
2023-02-15T20:41:19.390Z,101694.28
2023-02-15T20:44:21.508Z,101684.00
2023-02-15T20:47:07.039Z,101689.75
2023-02-15T20:49:51.733Z,101680.22
2023-02-15T20:52:37.196Z,101683.34
2023-02-15T20:55:25.542Z,101684.13
2023-02-15T20:58:28.923Z,101689.75
2023-02-15T21:01:14.411Z,101685.94
2023-02-15T21:03:59.662Z,101687.78
2023-02-15T21:06:45.293Z,101691.16
2023-02-15T21:09:30.696Z,101688.34
2023-02-15T21:12:18.598Z,101688.47
2023-02-15T21:15:25.023Z,101694.56
2023-02-15T21:18:24.999Z,101694.72
2023-02-15T21:21:14.623Z,101687.00
2023-02-15T21:23:59.696Z,101697.59
2023-02-15T21:26:46.714Z,101701.56
2023-02-15T21:29:31.854Z,101696.88
2023-02-15T21:32:16.794Z,101703.56
2023-02-15T21:35:02.282Z,101703.31
2023-02-15T21:37:50.262Z,101700.59
2023-02-15T21:40:35.199Z,101699.44
2023-02-15T21:43:24.430Z,101698.84
2023-02-15T21:46:15.612Z,101696.03
2023-02-15T21:49:01.515Z,101711.28
2023-02-15T21:51:46.863Z,101707.22
2023-02-15T21:54:31.790Z,101714.41
2023-02-15T21:57:17.437Z,101702.72
2023-02-15T22:00:02.724Z,101708.47
2023-02-15T22:02:51.258Z,101706.78
2023-02-15T22:05:36.088Z,101702.38
2023-02-15T22:08:21.055Z,101694.34
2023-02-15T22:11:15.150Z,101702.03
2023-02-15T22:14:00.288Z,101703.22
2023-02-15T22:16:45.204Z,101707.28
2023-02-15T22:19:30.147Z,101714.22
2023-02-15T22:22:16.055Z,101718.88
2023-02-15T22:25:01.442Z,101715.56
2023-02-15T22:27:48.092Z,101707.44
2023-02-15T22:30:36.693Z,101711.59
2023-02-15T22:33:25.291Z,101711.03
2023-02-15T22:36:21.952Z,101709.88
2023-02-15T22:39:07.184Z,101707.31
2023-02-15T22:41:53.265Z,101720.13
2023-02-15T22:44:38.383Z,101718.91
2023-02-15T22:47:29.673Z,101710.88
2023-02-15T22:50:18.991Z,101706.75
2023-02-15T22:53:04.199Z,101705.94
2023-02-15T22:55:50.053Z,101708.78
2023-02-15T22:58:35.568Z,101721.72
2023-02-15T23:01:29.526Z,101718.22
2023-02-15T23:04:21.161Z,101723.34
2023-02-15T23:07:12.885Z,101712.59
2023-02-15T23:09:57.727Z,101715.19
2023-02-15T23:12:43.000Z,101720.56
2023-02-15T23:15:28.256Z,101717.81
2023-02-15T23:18:21.194Z,101723.56
2023-02-15T23:21:15.314Z,101725.81
2023-02-15T23:24:20.244Z,101726.97
2023-02-15T23:27:05.799Z,101728.06
2023-02-15T23:29:50.831Z,101728.06
2023-02-15T23:32:36.272Z,101731.50
2023-02-15T23:35:21.246Z,101725.81
2023-02-15T23:38:19.160Z,101731.63
2023-02-15T23:41:04.485Z,101731.34
2023-02-15T23:43:58.126Z,101733.28
2023-02-15T23:46:46.579Z,101735.28
2023-02-15T23:49:31.707Z,101723.06
2023-02-15T23:52:16.682Z,101723.34
2023-02-15T23:55:01.969Z,101740.56
2023-02-15T23:57:47.751Z,101736.84
